Time;durP1;ratioP1;P1;durP2;ratioP2;P2;SDS_P1;SDS_P2;PMS_P1;PMS_P2;Temp;Humidity;BMP_temperature;BMP_pressure;BME280_temperature;BME280_humidity;BME280_pressure;Samples;Min_cycle;Max_cycle;Signal;HPM_P1;HPM_P2
2024/01/07 00:08:00;;;;;;;15.47;11.27;;;1.20;99.90;;;;;;10609303;27;20542;-90
2024/01/07 00:13:03;;;;;;;143.40;95.43;;;0.90;99.90;;;;;;10611177;28;20300;-89
2024/01/07 00:18:05;;;;;;;19.20;12.73;;;1.10;99.90;;;;;;10610912;28;20275;-91
2024/01/07 00:23:08;;;;;;;47.77;34.73;;;1.40;99.90;;;;;;10583288;28;20626;-91
2024/01/07 00:28:11;;;;;;;100.23;68.97;;;1.80;99.90;;;;;;10568419;28;20305;-90
2024/01/07 00:33:13;;;;;;;20.53;15.03;;;1.40;99.90;;;;;;10549874;28;20237;-91
2024/01/07 00:38:16;;;;;;;18.87;13.73;;;1.40;99.90;;;;;;10568175;28;20690;-91
2024/01/07 00:43:18;;;;;;;41.23;27.87;;;1.00;99.90;;;;;;10566110;28;20270;-90
2024/01/07 00:48:22;;;;;;;74.63;52.73;;;0.80;99.90;;;;;;10566034;28;20226;-91
2024/01/07 00:53:25;;;;;;;21.43;15.37;;;1.10;99.90;;;;;;10567295;28;20236;-90
2024/01/07 00:58:27;;;;;;;13.07;8.50;;;0.90;99.90;;;;;;10581402;28;20224;-92
2024/01/07 01:03:30;;;;;;;27.43;20.23;;;0.40;99.90;;;;;;10579380;28;20309;-88
2024/01/07 01:08:33;;;;;;;6.80;5.60;;;0.80;99.90;;;;;;10566865;28;20232;-89
2024/01/07 01:13:35;;;;;;;37.17;26.27;;;0.20;99.90;;;;;;10588555;28;20541;-89
2024/01/07 01:18:38;;;;;;;23.13;17.33;;;0.70;99.90;;;;;;10583275;28;20295;-88
2024/01/07 01:23:40;;;;;;;15.80;10.63;;;0.90;99.90;;;;;;10580732;28;20254;-88
2024/01/07 01:28:43;;;;;;;42.43;30.33;;;0.80;99.90;;;;;;10567833;28;20222;-90
2024/01/07 01:33:46;;;;;;;12.00;9.13;;;0.80;99.90;;;;;;10573320;28;20652;-89
2024/01/07 01:38:48;;;;;;;38.87;26.93;;;1.30;99.90;;;;;;10578565;28;20212;-89
2024/01/07 01:43:51;;;;;;;55.20;39.50;;;0.90;99.90;;;;;;10578268;28;20258;-89
2024/01/07 01:48:54;;;;;;;15.73;11.27;;;0.70;99.90;;;;;;10566868;28;20261;-88
2024/01/07 01:53:57;;;;;;;19.90;14.13;;;0.50;99.90;;;;;;10535390;28;20693;-89
2024/01/07 01:59:00;;;;;;;11.23;9.37;;;-0.10;99.90;;;;;;10537035;28;20661;-88
2024/01/07 02:04:03;;;;;;;9.33;5.77;;;-0.20;99.90;;;;;;10535165;28;20702;-89
2024/01/07 02:09:05;;;;;;;22.73;14.30;;;-0.10;99.90;;;;;;10554181;28;20243;-89
2024/01/07 02:14:08;;;;;;;43.73;31.87;;;-0.10;99.90;;;;;;10539469;28;20261;-89
2024/01/07 02:19:10;;;;;;;45.07;33.40;;;0.30;99.90;;;;;;10553584;28;20267;-89
2024/01/07 02:24:17;;;;;;;17.30;13.27;;;0.00;99.90;;;;;;10534693;28;20266;-89
2024/01/07 02:29:20;;;;;;;7.63;5.73;;;0.10;99.90;;;;;;10533550;28;20229;-89
2024/01/07 02:34:22;;;;;;;81.80;54.83;;;0.10;99.90;;;;;;10535469;28;20765;-89
2024/01/07 02:39:25;;;;;;;12.73;8.97;;;0.00;99.90;;;;;;10534847;28;20290;-88
2024/01/07 02:44:28;;;;;;;88.17;57.97;;;0.10;99.90;;;;;;10537016;28;20253;-89
2024/01/07 02:49:30;;;;;;;38.47;27.47;;;-0.20;99.90;;;;;;10565357;28;20257;-88
2024/01/07 02:54:33;;;;;;;29.77;19.93;;;0.00;99.90;;;;;;10534860;28;20245;-88
2024/01/07 02:59:35;;;;;;;31.73;22.00;;;-0.40;99.90;;;;;;10533199;28;20701;-88
2024/01/07 03:04:38;;;;;;;46.50;32.23;;;0.30;99.90;;;;;;10534314;28;20324;-88
2024/01/07 03:09:40;;;;;;;31.63;22.93;;;0.20;99.90;;;;;;10566958;27;20298;-89
2024/01/07 03:14:43;;;;;;;71.63;47.97;;;-0.10;99.90;;;;;;10532657;28;20615;-89
2024/01/07 03:19:46;;;;;;;13.93;10.77;;;0.00;99.90;;;;;;10566380;27;20214;-89
2024/01/07 03:24:49;;;;;;;9.97;7.77;;;-0.40;99.90;;;;;;10533824;28;20277;-89
2024/01/07 03:29:51;;;;;;;30.10;22.87;;;-0.30;99.90;;;;;;10515924;28;20228;-88
2024/01/07 03:34:54;;;;;;;24.07;17.60;;;-0.40;99.90;;;;;;10533766;28;20282;-89
2024/01/07 03:39:57;;;;;;;67.03;46.63;;;-0.80;99.90;;;;;;10533140;28;20298;-90
2024/01/07 03:44:59;;;;;;;65.70;44.87;;;-1.10;99.90;;;;;;10532893;28;20326;-89
2024/01/07 03:50:02;;;;;;;21.13;15.43;;;-0.90;99.90;;;;;;10542777;28;20209;-89
2024/01/07 03:55:05;;;;;;;14.97;11.23;;;-1.00;99.90;;;;;;10576725;28;20603;-89
2024/01/07 04:00:09;;;;;;;12.90;10.53;;;-1.30;99.90;;;;;;10577211;28;20230;-89
2024/01/07 04:05:12;;;;;;;26.97;19.90;;;-0.30;99.90;;;;;;10576185;28;20305;-89
2024/01/07 04:10:18;;;;;;;26.20;20.27;;;0.20;99.90;;;;;;10543899;28;20699;-88
2024/01/07 04:15:21;;;;;;;39.90;27.67;;;0.90;99.90;;;;;;10532882;28;20262;-88
2024/01/07 04:20:23;;;;;;;20.47;14.57;;;-0.10;99.90;;;;;;10533154;28;20238;-89
2024/01/07 04:25:26;;;;;;;39.07;28.13;;;0.70;99.90;;;;;;10533652;28;20333;-89
2024/01/07 04:30:29;;;;;;;27.87;19.10;;;1.00;99.90;;;;;;10533019;28;20601;-90
2024/01/07 04:35:31;;;;;;;12.30;8.73;;;1.50;99.90;;;;;;10533243;28;20233;-89
2024/01/07 04:40:34;;;;;;;22.83;18.07;;;1.30;99.90;;;;;;10564060;28;20284;-89
2024/01/07 04:45:36;;;;;;;43.97;32.30;;;2.10;99.90;;;;;;10574971;28;20316;-90
2024/01/07 04:50:42;;;;;;;11.40;9.17;;;2.00;99.90;;;;;;10548251;28;20565;-90
2024/01/07 04:55:44;;;;;;;27.80;20.77;;;1.60;99.90;;;;;;10540547;28;20229;-89
2024/01/07 05:00:47;;;;;;;11.57;8.27;;;1.10;99.90;;;;;;10540742;28;20203;-89
2024/01/07 05:05:50;;;;;;;4.47;3.90;;;-0.10;99.90;;;;;;10539622;28;20270;-90
2024/01/07 05:10:52;;;;;;;9.83;8.80;;;-0.90;99.90;;;;;;10538788;28;20236;-89
2024/01/07 05:15:55;;;;;;;12.07;9.13;;;-1.20;99.90;;;;;;10545586;28;20282;-89
2024/01/07 05:20:57;;;;;;;8.53;6.77;;;-1.30;99.90;;;;;;10579879;28;20236;-88
2024/01/07 05:26:00;;;;;;;6.90;5.97;;;-1.40;99.90;;;;;;10578140;28;20329;-89
2024/01/07 05:31:03;;;;;;;43.13;30.97;;;-1.40;99.90;;;;;;10575437;28;20237;-89
2024/01/07 05:36:06;;;;;;;16.47;12.40;;;-1.00;99.90;;;;;;10579034;28;20264;-89
2024/01/07 05:41:09;;;;;;;9.00;8.10;;;-0.90;99.90;;;;;;10577990;28;20245;-89
2024/01/07 05:46:12;;;;;;;13.60;9.33;;;-0.60;99.90;;;;;;10578722;28;20279;-88
2024/01/07 05:51:15;;;;;;;11.60;8.47;;;-0.90;99.90;;;;;;10578913;28;20234;-89
2024/01/07 05:56:18;;;;;;;30.27;22.97;;;-1.50;99.90;;;;;;10541321;28;20326;-89
2024/01/07 06:01:21;;;;;;;14.97;11.90;;;-1.70;99.90;;;;;;10538817;28;20881;-89
2024/01/07 06:06:24;;;;;;;8.60;7.37;;;-2.00;99.90;;;;;;10535115;28;20266;-88
2024/01/07 06:11:26;;;;;;;30.83;21.20;;;-2.10;99.90;;;;;;10535742;28;20428;-89
2024/01/07 06:16:29;;;;;;;6.87;5.67;;;-2.30;99.90;;;;;;10560865;28;20781;-89
2024/01/07 06:21:32;;;;;;;9.33;7.17;;;-2.50;99.90;;;;;;10577274;28;20602;-89
2024/01/07 06:26:34;;;;;;;9.13;7.47;;;-2.50;99.90;;;;;;10543164;28;20252;-89
2024/01/07 06:31:44;;;;;;;9.43;7.33;;;-2.70;99.90;;;;;;10533611;28;20294;-88
2024/01/07 06:36:47;;;;;;;12.43;7.77;;;-2.30;99.90;;;;;;10534232;28;20280;-89
2024/01/07 06:41:49;;;;;;;17.03;12.13;;;-2.20;99.90;;;;;;10534159;28;20274;-88
2024/01/07 06:46:52;;;;;;;35.67;27.30;;;-1.60;99.90;;;;;;10533179;28;20271;-88
2024/01/07 06:51:54;;;;;;;15.77;11.60;;;-1.20;99.90;;;;;;10533454;28;20229;-89
2024/01/07 06:56:57;;;;;;;11.80;8.97;;;-1.80;99.90;;;;;;10532209;28;20233;-88
2024/01/07 07:01:59;;;;;;;13.20;9.97;;;-1.90;99.90;;;;;;10533370;28;20230;-88
2024/01/07 07:07:02;;;;;;;7.97;7.13;;;-1.40;99.90;;;;;;10531683;28;20302;-88
2024/01/07 07:12:06;;;;;;;14.30;11.27;;;-2.20;99.90;;;;;;10530183;28;20283;-88
2024/01/07 07:17:09;;;;;;;15.77;12.03;;;-2.30;99.90;;;;;;10531460;28;20230;-89
2024/01/07 07:22:11;;;;;;;23.20;17.43;;;-2.20;99.90;;;;;;10533080;28;20226;-88
2024/01/07 07:27:15;;;;;;;48.60;34.13;;;-1.60;99.90;;;;;;10528085;28;20257;-87
2024/01/07 07:32:17;;;;;;;23.57;17.63;;;-1.40;99.90;;;;;;10532841;28;21122;-87
2024/01/07 07:37:20;;;;;;;13.97;11.63;;;-1.40;99.90;;;;;;10545995;28;20230;-87
2024/01/07 07:42:23;;;;;;;14.27;10.97;;;-1.70;99.90;;;;;;10531108;28;20234;-88
2024/01/07 07:47:25;;;;;;;17.57;14.00;;;-1.80;99.90;;;;;;10530863;28;21083;-88
2024/01/07 07:52:28;;;;;;;38.90;27.17;;;-2.00;99.90;;;;;;10530139;28;20233;-87
2024/01/07 07:57:31;;;;;;;22.47;17.83;;;-1.50;99.90;;;;;;10530429;28;20669;-88
2024/01/07 08:02:34;;;;;;;16.37;12.00;;;-1.70;99.90;;;;;;10531200;28;20256;-88
2024/01/07 08:07:36;;;;;;;14.83;11.20;;;-1.80;99.90;;;;;;10531172;28;20264;-88
2024/01/07 08:12:39;;;;;;;16.23;12.77;;;-2.00;99.90;;;;;;10530682;28;20641;-89
2024/01/07 08:17:42;;;;;;;15.40;9.97;;;-2.10;99.90;;;;;;10562366;28;20225;-89
2024/01/07 08:22:45;;;;;;;11.17;9.13;;;-2.10;99.90;;;;;;10529796;28;20821;-88
2024/01/07 08:27:47;;;;;;;25.37;19.63;;;-1.80;99.90;;;;;;10535115;28;20350;-88
2024/01/07 08:32:54;;;;;;;17.20;13.70;;;-1.60;99.90;;;;;;10538793;28;20252;-88
2024/01/07 08:37:56;;;;;;;14.90;12.70;;;-0.80;99.90;;;;;;10538285;28;20229;-88
2024/01/07 08:42:59;;;;;;;9.47;6.83;;;-1.30;99.90;;;;;;10538285;28;20233;-88
2024/01/07 08:48:02;;;;;;;12.23;8.87;;;-1.70;99.90;;;;;;10538756;28;20245;-88
2024/01/07 08:53:04;;;;;;;8.53;7.10;;;-1.60;99.90;;;;;;10538451;28;20666;-89
2024/01/07 08:58:07;;;;;;;8.27;6.23;;;-1.80;99.90;;;;;;10540872;28;20241;-88
2024/01/07 09:03:10;;;;;;;10.70;8.90;;;-1.70;99.90;;;;;;10537820;28;20229;-89
2024/01/07 09:08:14;;;;;;;9.67;7.13;;;-1.80;99.90;;;;;;10537971;28;20314;-88
2024/01/07 09:13:17;;;;;;;9.50;6.90;;;-2.00;99.90;;;;;;10536423;28;20667;-87
2024/01/07 09:18:19;;;;;;;13.17;8.20;;;-2.30;99.90;;;;;;10537138;28;20225;-88
2024/01/07 09:23:22;;;;;;;10.00;8.07;;;-2.30;99.90;;;;;;10536926;28;20229;-88
2024/01/07 09:28:25;;;;;;;10.50;6.37;;;-2.10;99.90;;;;;;10537050;28;20331;-87
2024/01/07 09:33:27;;;;;;;11.80;8.97;;;-2.00;99.90;;;;;;10565236;28;20236;-87
2024/01/07 09:38:30;;;;;;;17.90;11.37;;;-1.90;99.90;;;;;;10568469;27;20228;-87
2024/01/07 09:43:33;;;;;;;19.83;14.70;;;-1.80;99.90;;;;;;10549246;28;20282;-88
2024/01/07 09:48:38;;;;;;;13.23;10.63;;;-1.20;99.90;;;;;;10564045;28;20244;-87
2024/01/07 09:53:43;;;;;;;17.17;12.47;;;-1.50;99.90;;;;;;10546721;28;20234;-86
2024/01/07 09:58:49;;;;;;;11.30;7.07;;;-1.00;99.90;;;;;;10535968;28;20225;-87
2024/01/07 10:03:51;;;;;;;9.97;7.00;;;-1.30;99.90;;;;;;10535943;28;20649;-87
2024/01/07 10:08:58;;;;;;;10.67;8.20;;;-1.80;99.90;;;;;;10533875;28;20314;-87
2024/01/07 10:14:00;;;;;;;14.33;10.40;;;-2.10;99.90;;;;;;10566375;28;20221;-86
2024/01/07 10:19:02;;;;;;;17.97;13.30;;;-1.70;99.90;;;;;;10546410;28;20666;-87
2024/01/07 10:24:12;;;;;;;13.63;9.17;;;-1.20;99.90;;;;;;10535189;28;20229;-87
2024/01/07 10:29:15;;;;;;;16.80;12.43;;;-0.80;99.90;;;;;;10522060;28;20704;-86
2024/01/07 10:34:22;;;;;;;9.43;7.30;;;-1.20;99.90;;;;;;10551899;28;20815;-86
2024/01/07 10:39:24;;;;;;;13.13;8.87;;;-1.90;99.90;;;;;;10534573;28;20670;-86
2024/01/07 10:44:31;;;;;;;12.83;8.43;;;-2.60;99.90;;;;;;10576690;28;20301;-86
2024/01/07 10:49:36;;;;;;;10.17;7.03;;;-2.10;99.90;;;;;;10559190;28;20257;-87
2024/01/07 10:54:42;;;;;;;10.23;7.67;;;-2.40;99.90;;;;;;10533328;28;20294;-87
2024/01/07 10:59:46;;;;;;;13.23;10.13;;;-2.30;99.90;;;;;;10533174;28;20656;-87
2024/01/07 11:05:11;;;;;;;22.30;13.03;;;-2.30;99.90;;;;;;10532362;28;20753;-88
2024/01/07 11:10:18;;;;;;;12.23;9.33;;;-1.40;99.90;;;;;;10532745;28;20298;-87
2024/01/07 11:15:52;;;;;;;9.97;7.63;;;-1.10;99.90;;;;;;10530890;28;21048;-87
2024/01/07 11:21:01;;;;;;;10.23;7.77;;;-2.50;99.90;;;;;;10530437;28;20614;-86
2024/01/07 11:26:04;;;;;;;11.77;9.13;;;-3.10;99.90;;;;;;10532203;28;20287;-86
2024/01/07 11:31:06;;;;;;;10.13;7.47;;;-3.90;99.90;;;;;;10531873;28;20755;-86
2024/01/07 11:36:12;;;;;;;16.40;9.23;;;-4.30;99.90;;;;;;10530748;28;20678;-87
2024/01/07 11:41:17;;;;;;;14.63;10.70;;;-4.10;99.90;;;;;;10532708;28;20233;-85
2024/01/07 11:46:21;;;;;;;15.67;9.43;;;;;;;;;;10544634;28;20831;-85
2024/01/07 11:51:24;;;;;;;8.97;6.13;;;;;;;;;;10539784;28;20226;-85
2024/01/07 11:56:28;;;;;;;13.17;8.10;;;-4.70;99.90;;;;;;10526931;28;20619;-87
2024/01/07 12:01:31;;;;;;;13.37;8.60;;;-3.90;99.90;;;;;;10541408;28;20718;-86
2024/01/07 12:06:34;;;;;;;16.33;9.67;;;-3.70;99.90;;;;;;10547987;28;20351;-86
2024/01/07 12:11:37;;;;;;;14.43;7.70;;;-3.30;99.90;;;;;;10543547;28;20244;-83
2024/01/07 12:16:42;;;;;;;6.23;1.80;;;-3.20;99.90;;;;;;10564627;28;20232;-86
2024/01/07 12:21:45;;;;;;;12.63;7.57;;;-1.70;99.90;;;;;;10573533;28;20232;-87
2024/01/07 12:26:47;;;;;;;47.17;20.03;;;0.20;99.90;;;;;;10573741;28;20906;-86
2024/01/07 12:31:51;;;;;;;16.90;8.97;;;-0.20;99.90;;;;;;10571903;28;20258;-86
2024/01/07 12:36:55;;;;;;;35.27;14.53;;;-1.60;99.90;;;;;;10573429;28;20289;-87
2024/01/07 12:41:57;;;;;;;27.07;13.83;;;-2.20;99.90;;;;;;10571633;28;20248;-86
2024/01/07 12:47:00;;;;;;;17.27;8.80;;;-2.30;99.90;;;;;;10573028;28;20264;-86
2024/01/07 12:52:02;;;;;;;11.90;7.23;;;-2.40;99.90;;;;;;10572240;28;20667;-86
2024/01/07 12:57:05;;;;;;;15.53;8.87;;;-2.90;99.90;;;;;;10571585;28;20289;-86
2024/01/07 13:02:09;;;;;;;6.70;4.73;;;-3.20;99.90;;;;;;10573579;28;20315;-86
2024/01/07 13:07:11;;;;;;;13.20;8.53;;;-3.80;99.90;;;;;;10573047;28;20324;-87
2024/01/07 13:12:15;;;;;;;13.13;8.63;;;-3.50;99.90;;;;;;10573245;28;20236;-86
2024/01/07 13:17:17;;;;;;;17.40;9.47;;;-3.70;99.90;;;;;;10580315;28;20757;-87
2024/01/07 13:22:20;;;;;;;13.83;8.43;;;-3.70;99.90;;;;;;10580515;28;20266;-86
2024/01/07 13:27:23;;;;;;;14.07;9.60;;;-3.60;99.90;;;;;;10579199;28;20256;-86
2024/01/07 13:32:26;;;;;;;10.40;6.13;;;-3.80;99.90;;;;;;10529980;28;20225;-86
2024/01/07 13:37:29;;;;;;;13.83;8.30;;;-3.70;99.90;;;;;;10537930;28;20237;-86
2024/01/07 13:42:31;;;;;;;11.33;8.13;;;-3.50;99.90;;;;;;10535968;28;20759;-86
2024/01/07 13:47:35;;;;;;;10.40;7.13;;;-3.90;99.90;;;;;;10537310;28;20389;-86
2024/01/07 13:52:38;;;;;;;12.50;6.90;;;-3.90;99.90;;;;;;10519039;28;20233;-86
2024/01/07 13:57:41;;;;;;;9.70;7.70;;;-4.20;99.90;;;;;;10534995;28;20245;-86
2024/01/07 14:02:48;;;;;;;7.60;4.53;;;-4.30;99.90;;;;;;10536811;28;20247;-87
2024/01/07 14:07:51;;;;;;;10.00;6.93;;;-4.20;99.90;;;;;;10534754;28;20288;-86
2024/01/07 14:12:54;;;;;;;11.83;7.87;;;-4.10;99.90;;;;;;10536219;28;20259;-86
2024/01/07 14:17:56;;;;;;;13.00;8.60;;;-4.50;99.90;;;;;;10536361;28;20216;-86
2024/01/07 14:22:59;;;;;;;9.20;7.43;;;-4.40;99.90;;;;;;10535808;28;20229;-86
2024/01/07 14:28:03;;;;;;;10.60;7.67;;;-4.60;99.90;;;;;;10535222;28;20253;-86
2024/01/07 14:33:07;;;;;;;13.97;9.10;;;-5.00;99.90;;;;;;10535820;28;20228;-86
2024/01/07 14:38:10;;;;;;;14.17;9.33;;;-5.40;99.90;;;;;;10533866;28;20276;-86
2024/01/07 14:43:13;;;;;;;12.77;7.97;;;-5.30;99.90;;;;;;10534823;28;20989;-86
2024/01/07 14:48:15;;;;;;;12.80;7.97;;;-5.30;99.90;;;;;;10534859;28;20275;-86
2024/01/07 14:53:18;;;;;;;13.87;8.70;;;-5.50;99.90;;;;;;10534497;28;20229;-87
2024/01/07 14:58:24;;;;;;;10.40;7.23;;;-5.40;99.90;;;;;;10533099;28;20258;-86
2024/01/07 15:03:27;;;;;;;11.17;7.60;;;-5.50;99.90;;;;;;10534388;28;20317;-86
2024/01/07 15:08:29;;;;;;;10.77;6.03;;;-5.60;99.90;;;;;;10534774;28;20283;-82
2024/01/07 15:13:32;;;;;;;12.63;8.27;;;-3.20;99.90;;;;;;10533476;28;20243;-84
2024/01/07 15:18:34;;;;;;;12.67;8.40;;;-2.90;99.90;;;;;;10531350;28;20283;-85
2024/01/07 15:23:40;;;;;;;10.63;7.13;;;-4.70;99.90;;;;;;10532124;28;20225;-84
2024/01/07 15:28:42;;;;;;;11.00;6.50;;;-4.90;99.90;;;;;;10520141;28;20273;-85
2024/01/07 15:33:45;;;;;;;13.73;8.40;;;-4.70;99.90;;;;;;10500985;28;20229;-85
2024/01/07 15:38:48;;;;;;;15.27;8.87;;;-5.00;99.90;;;;;;10492104;28;20226;-85
2024/01/07 15:43:51;;;;;;;15.10;8.90;;;-5.30;99.90;;;;;;10491087;28;20234;-84
2024/01/07 15:48:54;;;;;;;12.70;8.83;;;-5.40;99.90;;;;;;10495291;28;20249;-85
2024/01/07 15:53:57;;;;;;;11.47;8.17;;;-5.40;99.90;;;;;;10531302;28;20221;-84
2024/01/07 15:58:59;;;;;;;13.23;8.70;;;-5.00;99.90;;;;;;10521042;28;20302;-84
2024/01/07 16:04:02;;;;;;;14.07;8.30;;;-4.80;99.90;;;;;;10525638;28;20757;-85
2024/01/07 16:09:04;;;;;;;15.40;10.33;;;-4.90;99.90;;;;;;10532230;28;20249;-85
2024/01/07 16:14:07;;;;;;;13.20;9.50;;;-4.90;99.90;;;;;;10556125;28;20229;-84
2024/01/07 16:19:10;;;;;;;18.90;10.63;;;-5.30;99.90;;;;;;10532094;28;20233;-84
2024/01/07 16:24:13;;;;;;;17.30;10.67;;;-5.50;99.90;;;;;;10531170;28;20670;-84
2024/01/07 16:29:16;;;;;;;19.80;11.60;;;-5.10;99.90;;;;;;10531380;28;20784;-85
2024/01/07 16:34:19;;;;;;;20.00;13.50;;;-4.80;99.90;;;;;;10530682;28;20230;-85
2024/01/07 16:39:23;;;;;;;16.00;12.33;;;-4.40;99.90;;;;;;10527358;28;20236;-85
2024/01/07 16:44:25;;;;;;;16.63;11.43;;;-4.60;99.90;;;;;;10527365;28;20233;-84
2024/01/07 16:49:28;;;;;;;18.17;11.43;;;-3.30;99.90;;;;;;10527916;28;20673;-85
2024/01/07 16:54:34;;;;;;;16.67;10.63;;;-2.90;99.90;;;;;;10532746;28;20282;-84
2024/01/07 16:59:37;;;;;;;15.83;10.37;;;-2.10;99.90;;;;;;10525146;28;20289;-84
2024/01/07 17:04:39;;;;;;;14.07;10.37;;;-2.20;99.90;;;;;;10546426;28;20282;-84
2024/01/07 17:09:43;;;;;;;15.30;10.80;;;-3.10;99.90;;;;;;10538893;28;20339;-83
2024/01/07 17:14:48;;;;;;;22.10;13.20;;;-3.60;99.90;;;;;;10506621;28;20229;-83
2024/01/07 17:19:50;;;;;;;18.53;11.23;;;-3.80;99.90;;;;;;10496016;28;20226;-83
2024/01/07 17:24:53;;;;;;;14.60;10.57;;;-4.00;99.90;;;;;;10523646;28;20237;-83
2024/01/07 17:29:56;;;;;;;14.10;9.43;;;-4.30;99.90;;;;;;10536730;28;20253;-84
2024/01/07 17:34:59;;;;;;;14.03;9.93;;;-4.10;99.90;;;;;;10540516;28;20258;-83
2024/01/07 17:40:01;;;;;;;14.67;11.57;;;-3.90;99.90;;;;;;10520304;28;20241;-83
2024/01/07 17:45:07;;;;;;;13.73;9.90;;;-3.90;99.90;;;;;;10495055;28;20234;-83
2024/01/07 17:50:10;;;;;;;14.07;9.97;;;-3.80;99.90;;;;;;10533545;28;20951;-84
2024/01/07 17:55:15;;;;;;;12.60;10.30;;;-3.70;99.90;;;;;;10510539;28;20271;-84
2024/01/07 18:00:18;;;;;;;13.23;10.13;;;-3.60;99.90;;;;;;10531332;28;20234;-84
2024/01/07 18:05:21;;;;;;;15.27;12.67;;;-3.60;99.90;;;;;;10517791;28;20264;-83
2024/01/07 18:10:24;;;;;;;19.97;14.40;;;-4.30;99.90;;;;;;10543759;28;20644;-82
2024/01/07 18:15:27;;;;;;;25.20;16.27;;;;;;;;;;10528347;28;20222;-83
2024/01/07 18:20:30;;;;;;;20.43;14.50;;;-6.80;99.90;;;;;;10532430;28;20209;-83
2024/01/07 18:25:33;;;;;;;94.67;42.23;;;-7.60;99.90;;;;;;10188152;28;10000424;-82
2024/01/07 18:30:36;;;;;;;113.20;64.03;;;-7.20;99.90;;;;;;10517088;28;20278;-82
2024/01/07 18:35:38;;;;;;;37.03;21.30;;;-5.90;99.90;;;;;;10532468;28;20228;-83
2024/01/07 18:40:41;;;;;;;23.87;14.53;;;-5.80;99.90;;;;;;10548662;28;20270;-88
2024/01/07 18:45:44;;;;;;;21.37;15.50;;;-6.40;99.90;;;;;;10530932;28;20874;-86
2024/01/07 18:50:46;;;;;;;24.90;18.87;;;-7.40;99.90;;;;;;10517126;28;20241;-87
2024/01/07 18:55:49;;;;;;;29.70;20.47;;;-7.70;99.90;;;;;;10532995;28;20321;-87
2024/01/07 19:00:52;;;;;;;27.33;19.23;;;-7.80;99.90;;;;;;10538715;28;20240;-88
2024/01/07 19:05:55;;;;;;;31.07;20.27;;;-8.00;99.90;;;;;;10530836;28;20660;-88
2024/01/07 22:24:22;;;;;;;34.17;22.23;;;-5.90;99.90;;;;;;10525514;28;20536;-88
2024/01/07 22:29:25;;;;;;;30.93;17.50;;;-6.40;99.90;;;;;;10493969;28;20230;-87
2024/01/07 22:34:27;;;;;;;38.97;22.73;;;-6.30;99.90;;;;;;10494093;28;20264;-88
2024/01/07 22:39:31;;;;;;;38.43;22.93;;;-6.30;99.90;;;;;;10503636;28;20249;-89
2024/01/07 22:44:34;;;;;;;71.77;35.43;;;-6.90;99.90;;;;;;10498956;28;21040;-87
2024/01/07 22:49:37;;;;;;;47.90;25.93;;;-7.40;99.90;;;;;;10531355;27;20214;-88
2024/01/07 22:54:40;;;;;;;43.30;22.93;;;-7.30;99.90;;;;;;10504917;28;20682;-89
2024/01/07 22:59:43;;;;;;;54.03;30.00;;;-6.90;99.90;;;;;;10500415;28;20646;-89
2024/01/07 23:04:45;;;;;;;83.73;44.33;;;-6.80;99.90;;;;;;10496789;28;20283;-89
2024/01/07 23:09:48;;;;;;;37.50;23.50;;;-6.40;99.90;;;;;;10479820;28;20238;-89
2024/01/07 23:14:50;;;;;;;39.10;23.37;;;-6.60;99.90;;;;;;10488576;28;20234;-92
2024/01/07 23:19:53;;;;;;;48.03;27.80;;;-6.90;99.90;;;;;;10491880;28;20257;-90
2024/01/07 23:24:57;;;;;;;48.90;28.63;;;-7.00;99.90;;;;;;10500985;28;20233;-90
2024/01/07 23:30:00;;;;;;;40.40;24.77;;;-6.80;99.90;;;;;;10510597;28;20233;-89
2024/01/07 23:35:03;;;;;;;50.97;25.57;;;-7.00;99.90;;;;;;10478614;28;20226;-89
2024/01/07 23:40:07;;;;;;;34.57;20.33;;;-7.50;99.90;;;;;;10471913;28;20246;-90
2024/01/07 23:45:09;;;;;;;42.13;24.37;;;-7.60;99.90;;;;;;10475035;28;20218;-89
2024/01/07 23:50:12;;;;;;;29.50;18.97;;;-7.80;99.90;;;;;;10476293;28;20230;-89
2024/01/07 23:55:14;;;;;;;30.60;19.20;;;-7.50;99.90;;;;;;10467717;28;20625;-90
